sensor_id;sensor_type;location;lat;lon;timestamp;pressure;altitude;pressure_sealevel;temperature;humidity
70437;BME280;57877;39.750;-104.894;2023-02-10T00:02:22;84727.30;;;-4.53;31.05
70437;BME280;57877;39.750;-104.894;2023-02-10T00:04:47;84731.29;;;-3.33;30.08
70437;BME280;57877;39.750;-104.894;2023-02-10T00:07:12;84735.06;;;-3.57;29.68
70437;BME280;57877;39.750;-104.894;2023-02-10T00:09:37;84735.21;;;-3.39;29.11
70437;BME280;57877;39.750;-104.894;2023-02-10T00:12:02;84736.41;;;-3.41;28.72
70437;BME280;57877;39.750;-104.894;2023-02-10T00:14:29;84738.77;;;-3.79;28.60
70437;BME280;57877;39.750;-104.894;2023-02-10T00:16:53;84737.08;;;-3.29;28.52
70437;BME280;57877;39.750;-104.894;2023-02-10T00:19:17;84737.68;;;-3.70;28.23
70437;BME280;57877;39.750;-104.894;2023-02-10T00:21:42;84742.88;;;-3.18;27.92
70437;BME280;57877;39.750;-104.894;2023-02-10T00:24:07;84743.80;;;-3.19;27.80
70437;BME280;57877;39.750;-104.894;2023-02-10T00:26:32;84744.54;;;-3.85;28.03
70437;BME280;57877;39.750;-104.894;2023-02-10T00:28:58;84746.55;;;-4.10;28.41
70437;BME280;57877;39.750;-104.894;2023-02-10T00:31:24;84748.14;;;-3.47;27.97
70437;BME280;57877;39.750;-104.894;2023-02-10T00:33:49;84746.27;;;-3.31;27.98
70437;BME280;57877;39.750;-104.894;2023-02-10T00:36:15;84746.88;;;-4.02;28.40
70437;BME280;57877;39.750;-104.894;2023-02-10T00:38:40;84753.86;;;-3.56;28.31
70437;BME280;57877;39.750;-104.894;2023-02-10T00:41:05;84757.28;;;-3.62;28.17
70437;BME280;57877;39.750;-104.894;2023-02-10T00:43:29;84756.19;;;-3.30;27.93
70437;BME280;57877;39.750;-104.894;2023-02-10T00:45:54;84759.42;;;-2.75;28.07
70437;BME280;57877;39.750;-104.894;2023-02-10T00:48:20;84757.28;;;-2.85;27.77
70437;BME280;57877;39.750;-104.894;2023-02-10T00:50:46;84761.91;;;-2.47;27.41
70437;BME280;57877;39.750;-104.894;2023-02-10T00:53:13;84761.72;;;-2.35;26.85
70437;BME280;57877;39.750;-104.894;2023-02-10T00:55:37;84765.65;;;-2.65;27.38
70437;BME280;57877;39.750;-104.894;2023-02-10T00:58:02;84768.39;;;-2.87;28.33
70437;BME280;57877;39.750;-104.894;2023-02-10T01:00:28;84767.15;;;-3.18;28.89
70437;BME280;57877;39.750;-104.894;2023-02-10T01:02:54;84767.57;;;-3.73;28.93
70437;BME280;57877;39.750;-104.894;2023-02-10T01:05:19;84766.70;;;-2.77;28.58
70437;BME280;57877;39.750;-104.894;2023-02-10T01:07:45;84769.34;;;-3.23;28.53
70437;BME280;57877;39.750;-104.894;2023-02-10T01:10:10;84772.18;;;-3.07;27.96
70437;BME280;57877;39.750;-104.894;2023-02-10T01:12:35;84778.92;;;-3.30;27.89
70437;BME280;57877;39.750;-104.894;2023-02-10T01:15:00;84780.03;;;-3.06;27.58
70437;BME280;57877;39.750;-104.894;2023-02-10T01:17:25;84784.90;;;-4.00;28.01
70437;BME280;57877;39.750;-104.894;2023-02-10T01:19:50;84781.24;;;-3.52;27.72
70437;BME280;57877;39.750;-104.894;2023-02-10T01:22:15;84780.99;;;-4.24;28.08
70437;BME280;57877;39.750;-104.894;2023-02-10T01:24:40;84785.67;;;-3.04;27.60
70437;BME280;57877;39.750;-104.894;2023-02-10T01:27:05;84790.17;;;-3.52;27.86
70437;BME280;57877;39.750;-104.894;2023-02-10T01:29:30;84797.95;;;-3.29;27.71
70437;BME280;57877;39.750;-104.894;2023-02-10T01:31:55;84797.10;;;-3.03;27.26
70437;BME280;57877;39.750;-104.894;2023-02-10T01:34:20;84799.64;;;-3.02;26.96
70437;BME280;57877;39.750;-104.894;2023-02-10T01:36:45;84799.94;;;-2.60;26.76
70437;BME280;57877;39.750;-104.894;2023-02-10T01:39:10;84801.12;;;-2.69;26.80
70437;BME280;57877;39.750;-104.894;2023-02-10T01:41:35;84799.57;;;-2.79;26.68
70437;BME280;57877;39.750;-104.894;2023-02-10T01:44:02;84802.70;;;-2.86;27.14
70437;BME280;57877;39.750;-104.894;2023-02-10T01:46:26;84805.32;;;-2.71;26.84
70437;BME280;57877;39.750;-104.894;2023-02-10T01:48:51;84805.49;;;-2.66;26.96
70437;BME280;57877;39.750;-104.894;2023-02-10T01:51:16;84808.35;;;-2.69;27.09
70437;BME280;57877;39.750;-104.894;2023-02-10T01:53:41;84810.62;;;-2.83;26.87
70437;BME280;57877;39.750;-104.894;2023-02-10T01:56:06;84814.60;;;-2.77;26.94
70437;BME280;57877;39.750;-104.894;2023-02-10T01:58:33;84816.71;;;-2.79;26.83
70437;BME280;57877;39.750;-104.894;2023-02-10T02:00:59;84817.61;;;-2.63;26.56
70437;BME280;57877;39.750;-104.894;2023-02-10T02:03:23;84815.94;;;-2.71;26.67
70437;BME280;57877;39.750;-104.894;2023-02-10T02:05:49;84815.82;;;-2.66;26.58
70437;BME280;57877;39.750;-104.894;2023-02-10T02:08:17;84814.96;;;-2.71;26.43
70437;BME280;57877;39.750;-104.894;2023-02-10T02:10:52;84813.05;;;-2.85;26.70
70437;BME280;57877;39.750;-104.894;2023-02-10T02:13:11;84815.24;;;-2.55;26.68
70437;BME280;57877;39.750;-104.894;2023-02-10T02:15:35;84816.55;;;-2.96;26.34
70437;BME280;57877;39.750;-104.894;2023-02-10T02:18:03;84825.98;;;-2.66;26.54
70437;BME280;57877;39.750;-104.894;2023-02-10T02:20:33;84829.40;;;-3.01;26.86
70437;BME280;57877;39.750;-104.894;2023-02-10T02:25:19;84828.89;;;-2.96;26.74
70437;BME280;57877;39.750;-104.894;2023-02-10T02:30:11;84831.41;;;-3.14;26.57
70437;BME280;57877;39.750;-104.894;2023-02-10T02:32:27;84825.86;;;-2.96;26.66
70437;BME280;57877;39.750;-104.894;2023-02-10T02:34:55;84831.01;;;-3.14;26.73
70437;BME280;57877;39.750;-104.894;2023-02-10T02:37:21;84833.06;;;-3.09;26.53
70437;BME280;57877;39.750;-104.894;2023-02-10T02:39:43;84836.34;;;-3.05;26.48
70437;BME280;57877;39.750;-104.894;2023-02-10T02:42:15;84838.05;;;-3.39;26.31
70437;BME280;57877;39.750;-104.894;2023-02-10T02:44:33;84838.01;;;-3.20;26.39
70437;BME280;57877;39.750;-104.894;2023-02-10T02:47:02;84839.69;;;-3.06;26.25
70437;BME280;57877;39.750;-104.894;2023-02-10T02:49:29;84841.56;;;-3.45;26.42
70437;BME280;57877;39.750;-104.894;2023-02-10T02:51:52;84841.41;;;-3.37;26.32
70437;BME280;57877;39.750;-104.894;2023-02-10T02:54:22;84844.97;;;-3.32;26.30
70437;BME280;57877;39.750;-104.894;2023-02-10T02:56:43;84844.81;;;-3.33;26.29
70437;BME280;57877;39.750;-104.894;2023-02-10T02:59:10;84842.25;;;-3.16;26.28
70437;BME280;57877;39.750;-104.894;2023-02-10T03:01:31;84840.76;;;-3.13;26.10
70437;BME280;57877;39.750;-104.894;2023-02-10T03:03:54;84842.10;;;-3.56;26.12
70437;BME280;57877;39.750;-104.894;2023-02-10T03:06:20;84842.92;;;-3.45;26.30
70437;BME280;57877;39.750;-104.894;2023-02-10T03:08:44;84840.16;;;-3.79;26.77
70437;BME280;57877;39.750;-104.894;2023-02-10T03:11:09;84841.09;;;-3.63;26.70
70437;BME280;57877;39.750;-104.894;2023-02-10T03:13:34;84845.59;;;-3.73;26.89
70437;BME280;57877;39.750;-104.894;2023-02-10T03:15:59;84847.93;;;-3.75;27.03
70437;BME280;57877;39.750;-104.894;2023-02-10T03:18:24;84848.37;;;-3.76;27.09
70437;BME280;57877;39.750;-104.894;2023-02-10T03:20:49;84850.60;;;-3.51;27.04
70437;BME280;57877;39.750;-104.894;2023-02-10T03:23:14;84849.67;;;-3.48;27.24
70437;BME280;57877;39.750;-104.894;2023-02-10T03:25:39;84850.72;;;-3.71;27.27
70437;BME280;57877;39.750;-104.894;2023-02-10T03:28:05;84852.31;;;-3.15;27.07
70437;BME280;57877;39.750;-104.894;2023-02-10T03:30:30;84856.33;;;-3.67;27.08
70437;BME280;57877;39.750;-104.894;2023-02-10T03:32:55;84854.55;;;-3.83;27.31
70437;BME280;57877;39.750;-104.894;2023-02-10T03:35:20;84852.00;;;-3.68;27.11
70437;BME280;57877;39.750;-104.894;2023-02-10T03:37:45;84854.64;;;-3.80;27.05
70437;BME280;57877;39.750;-104.894;2023-02-10T03:40:11;84857.60;;;-3.76;27.12
70437;BME280;57877;39.750;-104.894;2023-02-10T03:42:35;84855.98;;;-3.78;27.24
70437;BME280;57877;39.750;-104.894;2023-02-10T03:45:00;84855.16;;;-3.89;27.59
70437;BME280;57877;39.750;-104.894;2023-02-10T03:47:25;84854.64;;;-3.94;27.55
70437;BME280;57877;39.750;-104.894;2023-02-10T03:49:50;84853.46;;;-3.91;28.04
70437;BME280;57877;39.750;-104.894;2023-02-10T03:52:15;84857.53;;;-4.07;27.89
70437;BME280;57877;39.750;-104.894;2023-02-10T03:54:40;84858.71;;;-4.00;27.85
70437;BME280;57877;39.750;-104.894;2023-02-10T03:57:05;84858.24;;;-4.02;27.91
70437;BME280;57877;39.750;-104.894;2023-02-10T03:59:31;84860.08;;;-3.61;27.71
70437;BME280;57877;39.750;-104.894;2023-02-10T04:01:56;84861.15;;;-3.97;27.78
70437;BME280;57877;39.750;-104.894;2023-02-10T04:04:21;84862.43;;;-3.80;27.81
70437;BME280;57877;39.750;-104.894;2023-02-10T04:06:46;84862.01;;;-4.08;28.15
70437;BME280;57877;39.750;-104.894;2023-02-10T04:09:12;84859.31;;;-4.45;28.47
70437;BME280;57877;39.750;-104.894;2023-02-10T04:11:37;84859.48;;;-4.36;28.91
70437;BME280;57877;39.750;-104.894;2023-02-10T04:14:02;84864.17;;;-4.17;28.39
70437;BME280;57877;39.750;-104.894;2023-02-10T04:16:27;84865.90;;;-4.16;28.54
70437;BME280;57877;39.750;-104.894;2023-02-10T04:18:53;84864.87;;;-4.42;28.42
70437;BME280;57877;39.750;-104.894;2023-02-10T04:21:18;84869.75;;;-4.16;28.50
70437;BME280;57877;39.750;-104.894;2023-02-10T04:23:43;84873.75;;;-4.22;28.70
70437;BME280;57877;39.750;-104.894;2023-02-10T04:26:08;84872.20;;;-3.99;28.85
70437;BME280;57877;39.750;-104.894;2023-02-10T04:28:33;84869.73;;;-3.98;28.78
70437;BME280;57877;39.750;-104.894;2023-02-10T04:31:00;84871.93;;;-4.12;28.83
70437;BME280;57877;39.750;-104.894;2023-02-10T04:33:24;84870.05;;;-4.48;28.97
70437;BME280;57877;39.750;-104.894;2023-02-10T04:35:49;84866.85;;;-4.16;29.04
70437;BME280;57877;39.750;-104.894;2023-02-10T04:38:13;84870.48;;;-4.21;29.14
70437;BME280;57877;39.750;-104.894;2023-02-10T04:40:38;84866.58;;;-4.19;28.81
70437;BME280;57877;39.750;-104.894;2023-02-10T04:43:03;84871.07;;;-4.27;28.90
70437;BME280;57877;39.750;-104.894;2023-02-10T04:45:28;84870.21;;;-4.43;29.30
70437;BME280;57877;39.750;-104.894;2023-02-10T04:47:54;84872.09;;;-4.74;29.60
70437;BME280;57877;39.750;-104.894;2023-02-10T04:50:19;84870.07;;;-4.61;29.53
70437;BME280;57877;39.750;-104.894;2023-02-10T04:52:44;84870.95;;;-4.73;29.82
70437;BME280;57877;39.750;-104.894;2023-02-10T04:55:09;84869.44;;;-4.48;29.55
70437;BME280;57877;39.750;-104.894;2023-02-10T04:57:34;84867.14;;;-4.45;29.54
70437;BME280;57877;39.750;-104.894;2023-02-10T04:59:59;84863.80;;;-4.49;29.60
70437;BME280;57877;39.750;-104.894;2023-02-10T05:02:24;84863.36;;;-4.59;29.79
70437;BME280;57877;39.750;-104.894;2023-02-10T05:04:49;84865.30;;;-4.55;29.65
70437;BME280;57877;39.750;-104.894;2023-02-10T05:07:14;84866.99;;;-4.63;29.73
70437;BME280;57877;39.750;-104.894;2023-02-10T05:09:39;84868.89;;;-4.55;29.64
70437;BME280;57877;39.750;-104.894;2023-02-10T05:12:04;84864.52;;;-4.43;29.49
70437;BME280;57877;39.750;-104.894;2023-02-10T05:14:29;84860.34;;;-4.40;29.38
70437;BME280;57877;39.750;-104.894;2023-02-10T05:16:55;84860.95;;;-4.95;29.75
70437;BME280;57877;39.750;-104.894;2023-02-10T05:19:20;84860.19;;;-4.55;29.56
70437;BME280;57877;39.750;-104.894;2023-02-10T05:21:45;84864.24;;;-4.51;29.68
70437;BME280;57877;39.750;-104.894;2023-02-10T05:24:10;84862.69;;;-4.53;29.76
70437;BME280;57877;39.750;-104.894;2023-02-10T05:26:35;84859.93;;;-4.93;30.02
70437;BME280;57877;39.750;-104.894;2023-02-10T05:29:00;84863.71;;;-4.86;29.80
70437;BME280;57877;39.750;-104.894;2023-02-10T05:31:25;84866.67;;;-5.20;30.07
70437;BME280;57877;39.750;-104.894;2023-02-10T05:33:50;84868.89;;;-4.66;29.79
70437;BME280;57877;39.750;-104.894;2023-02-10T05:36:16;84869.43;;;-4.71;29.84
70437;BME280;57877;39.750;-104.894;2023-02-10T05:38:40;84867.01;;;-4.65;29.69
70437;BME280;57877;39.750;-104.894;2023-02-10T05:41:05;84870.79;;;-4.81;29.99
70437;BME280;57877;39.750;-104.894;2023-02-10T05:43:31;84870.81;;;-4.82;29.72
70437;BME280;57877;39.750;-104.894;2023-02-10T05:45:56;84870.16;;;-4.96;29.71
70437;BME280;57877;39.750;-104.894;2023-02-10T05:48:21;84867.97;;;-5.41;30.22
70437;BME280;57877;39.750;-104.894;2023-02-10T05:50:50;84866.20;;;-4.84;30.00
70437;BME280;57877;39.750;-104.894;2023-02-10T05:53:11;84865.30;;;-5.08;30.18
70437;BME280;57877;39.750;-104.894;2023-02-10T05:55:36;84865.90;;;-5.37;29.91
70437;BME280;57877;39.750;-104.894;2023-02-10T05:58:01;84866.16;;;-5.21;30.33
70437;BME280;57877;39.750;-104.894;2023-02-10T06:00:26;84867.01;;;-5.31;30.47
70437;BME280;57877;39.750;-104.894;2023-02-10T06:02:51;84867.99;;;-5.35;30.21
70437;BME280;57877;39.750;-104.894;2023-02-10T06:05:16;84872.63;;;-5.43;30.39
70437;BME280;57877;39.750;-104.894;2023-02-10T06:07:42;84874.57;;;-5.19;30.25
70437;BME280;57877;39.750;-104.894;2023-02-10T06:10:07;84868.91;;;-5.09;30.13
70437;BME280;57877;39.750;-104.894;2023-02-10T06:12:32;84872.41;;;-5.30;30.05
70437;BME280;57877;39.750;-104.894;2023-02-10T06:14:57;84876.38;;;-5.27;30.05
70437;BME280;57877;39.750;-104.894;2023-02-10T06:17:22;84880.94;;;-5.34;29.91
70437;BME280;57877;39.750;-104.894;2023-02-10T06:19:47;84881.32;;;-5.46;30.49
70437;BME280;57877;39.750;-104.894;2023-02-10T06:22:12;84881.83;;;-5.37;30.18
70437;BME280;57877;39.750;-104.894;2023-02-10T06:24:37;84878.68;;;-5.15;30.05
70437;BME280;57877;39.750;-104.894;2023-02-10T06:27:02;84878.22;;;-5.59;30.71
70437;BME280;57877;39.750;-104.894;2023-02-10T06:29:27;84874.63;;;-5.56;30.67
70437;BME280;57877;39.750;-104.894;2023-02-10T06:31:53;84868.28;;;-5.38;30.61
70437;BME280;57877;39.750;-104.894;2023-02-10T06:34:18;84868.79;;;-5.61;30.68
70437;BME280;57877;39.750;-104.894;2023-02-10T06:36:43;84872.11;;;-6.15;31.59
70437;BME280;57877;39.750;-104.894;2023-02-10T06:39:08;84870.09;;;-6.99;32.94
70437;BME280;57877;39.750;-104.894;2023-02-10T06:41:33;84869.93;;;-6.28;32.47
70437;BME280;57877;39.750;-104.894;2023-02-10T06:43:58;84871.32;;;-6.04;32.02
70437;BME280;57877;39.750;-104.894;2023-02-10T06:46:23;84872.29;;;-6.00;32.28
70437;BME280;57877;39.750;-104.894;2023-02-10T06:48:48;84874.08;;;-6.50;32.20
70437;BME280;57877;39.750;-104.894;2023-02-10T06:51:14;84869.28;;;-5.80;31.74
70437;BME280;57877;39.750;-104.894;2023-02-10T06:53:39;84867.59;;;-6.68;32.55
70437;BME280;57877;39.750;-104.894;2023-02-10T06:56:04;84869.33;;;-6.44;32.24
70437;BME280;57877;39.750;-104.894;2023-02-10T06:58:29;84868.29;;;-6.16;32.03
70437;BME280;57877;39.750;-104.894;2023-02-10T07:00:54;84869.55;;;-6.29;32.63
70437;BME280;57877;39.750;-104.894;2023-02-10T07:03:19;84863.34;;;-6.73;33.46
70437;BME280;57877;39.750;-104.894;2023-02-10T07:05:44;84860.40;;;-6.23;32.94
70437;BME280;57877;39.750;-104.894;2023-02-10T07:08:09;84859.31;;;-6.58;33.34
70437;BME280;57877;39.750;-104.894;2023-02-10T07:10:34;84858.88;;;-6.94;33.96
70437;BME280;57877;39.750;-104.894;2023-02-10T07:13:00;84857.22;;;-7.11;34.49
70437;BME280;57877;39.750;-104.894;2023-02-10T07:15:25;84852.74;;;-7.11;34.44
70437;BME280;57877;39.750;-104.894;2023-02-10T07:17:50;84852.08;;;-6.26;33.49
70437;BME280;57877;39.750;-104.894;2023-02-10T07:20:15;84845.91;;;-6.89;33.80
70437;BME280;57877;39.750;-104.894;2023-02-10T07:22:40;84846.49;;;-7.19;34.34
70437;BME280;57877;39.750;-104.894;2023-02-10T07:25:06;84845.43;;;-6.56;33.50
70437;BME280;57877;39.750;-104.894;2023-02-10T07:27:30;84844.89;;;-6.57;33.31
70437;BME280;57877;39.750;-104.894;2023-02-10T07:29:55;84842.24;;;-6.64;33.53
70437;BME280;57877;39.750;-104.894;2023-02-10T07:32:20;84841.13;;;-6.24;33.12
70437;BME280;57877;39.750;-104.894;2023-02-10T07:34:45;84835.40;;;-6.42;33.28
70437;BME280;57877;39.750;-104.894;2023-02-10T07:37:11;84830.12;;;-6.32;33.21
70437;BME280;57877;39.750;-104.894;2023-02-10T07:39:36;84831.64;;;-6.31;33.13
70437;BME280;57877;39.750;-104.894;2023-02-10T07:42:01;84829.84;;;-6.66;33.47
70437;BME280;57877;39.750;-104.894;2023-02-10T07:44:26;84825.44;;;-6.21;33.07
70437;BME280;57877;39.750;-104.894;2023-02-10T07:46:52;84824.21;;;-6.24;33.07
70437;BME280;57877;39.750;-104.894;2023-02-10T07:49:16;84821.78;;;-6.58;33.66
70437;BME280;57877;39.750;-104.894;2023-02-10T07:51:41;84812.11;;;-6.88;33.73
70437;BME280;57877;39.750;-104.894;2023-02-10T07:54:06;84804.92;;;-6.98;33.99
70437;BME280;57877;39.750;-104.894;2023-02-10T07:56:31;84800.60;;;-6.75;33.53
70437;BME280;57877;39.750;-104.894;2023-02-10T07:58:57;84790.63;;;-7.27;34.12
70437;BME280;57877;39.750;-104.894;2023-02-10T08:01:22;84780.23;;;-7.29;34.20
70437;BME280;57877;39.750;-104.894;2023-02-10T08:03:47;84780.21;;;-8.05;35.37
70437;BME280;57877;39.750;-104.894;2023-02-10T08:06:12;84771.60;;;-8.46;36.67
70437;BME280;57877;39.750;-104.894;2023-02-10T08:08:37;84769.42;;;-7.94;35.94
70437;BME280;57877;39.750;-104.894;2023-02-10T08:11:04;84766.38;;;-7.56;35.00
70437;BME280;57877;39.750;-104.894;2023-02-10T08:13:28;84762.58;;;-7.82;34.93
70437;BME280;57877;39.750;-104.894;2023-02-10T08:15:53;84761.12;;;-7.59;35.07
70437;BME280;57877;39.750;-104.894;2023-02-10T08:18:18;84759.19;;;-8.00;35.50
70437;BME280;57877;39.750;-104.894;2023-02-10T08:20:43;84762.18;;;-7.51;34.83
70437;BME280;57877;39.750;-104.894;2023-02-10T08:23:14;84757.99;;;-8.28;35.71
70437;BME280;57877;39.750;-104.894;2023-02-10T08:25:33;84754.18;;;-7.92;35.14
70437;BME280;57877;39.750;-104.894;2023-02-10T08:27:59;84750.62;;;-7.52;34.41
70437;BME280;57877;39.750;-104.894;2023-02-10T08:30:24;84751.40;;;-7.00;33.74
70437;BME280;57877;39.750;-104.894;2023-02-10T08:32:49;84746.01;;;-7.21;33.96
70437;BME280;57877;39.750;-104.894;2023-02-10T08:35:14;84743.35;;;-7.37;33.86
70437;BME280;57877;39.750;-104.894;2023-02-10T08:37:39;84740.52;;;-7.56;33.95
70437;BME280;57877;39.750;-104.894;2023-02-10T08:40:05;84732.40;;;-7.95;35.11
70437;BME280;57877;39.750;-104.894;2023-02-10T08:42:30;84734.25;;;-7.91;35.11
70437;BME280;57877;39.750;-104.894;2023-02-10T08:44:55;84731.07;;;-7.86;34.52
70437;BME280;57877;39.750;-104.894;2023-02-10T08:47:20;84726.87;;;-7.98;34.57
70437;BME280;57877;39.750;-104.894;2023-02-10T08:49:45;84724.10;;;-7.48;34.81
70437;BME280;57877;39.750;-104.894;2023-02-10T08:52:11;84722.62;;;-7.85;34.70
70437;BME280;57877;39.750;-104.894;2023-02-10T08:54:36;84717.74;;;-7.93;34.54
70437;BME280;57877;39.750;-104.894;2023-02-10T08:57:01;84717.31;;;-7.35;33.82
70437;BME280;57877;39.750;-104.894;2023-02-10T08:59:26;84716.73;;;-8.14;34.78
70437;BME280;57877;39.750;-104.894;2023-02-10T09:01:51;84717.42;;;-7.53;33.93
70437;BME280;57877;39.750;-104.894;2023-02-10T09:04:16;84714.50;;;-7.31;33.53
70437;BME280;57877;39.750;-104.894;2023-02-10T09:06:42;84710.22;;;-7.68;33.72
70437;BME280;57877;39.750;-104.894;2023-02-10T09:09:07;84704.73;;;-7.70;34.17
70437;BME280;57877;39.750;-104.894;2023-02-10T09:11:32;84702.80;;;-8.41;34.95
70437;BME280;57877;39.750;-104.894;2023-02-10T09:13:57;84700.24;;;-8.41;34.98
70437;BME280;57877;39.750;-104.894;2023-02-10T09:16:22;84703.20;;;-8.20;35.07
70437;BME280;57877;39.750;-104.894;2023-02-10T09:18:47;84697.09;;;-7.86;34.54
70437;BME280;57877;39.750;-104.894;2023-02-10T09:21:12;84694.26;;;-8.06;34.60
70437;BME280;57877;39.750;-104.894;2023-02-10T09:23:38;84690.03;;;-8.70;35.27
70437;BME280;57877;39.750;-104.894;2023-02-10T09:26:03;84683.91;;;-8.13;35.11
70437;BME280;57877;39.750;-104.894;2023-02-10T09:28:28;84680.81;;;-8.08;34.61
70437;BME280;57877;39.750;-104.894;2023-02-10T09:30:53;84678.26;;;-8.11;35.10
70437;BME280;57877;39.750;-104.894;2023-02-10T09:33:18;84675.85;;;-8.17;34.79
70437;BME280;57877;39.750;-104.894;2023-02-10T09:35:43;84674.81;;;-8.11;35.06
70437;BME280;57877;39.750;-104.894;2023-02-10T09:38:09;84677.09;;;-9.29;36.68
70437;BME280;57877;39.750;-104.894;2023-02-10T09:40:43;84671.20;;;-8.05;34.96
70437;BME280;57877;39.750;-104.894;2023-02-10T09:43:11;84662.88;;;-7.94;34.62
70437;BME280;57877;39.750;-104.894;2023-02-10T09:45:26;84658.18;;;-8.17;34.61
70437;BME280;57877;39.750;-104.894;2023-02-10T09:47:50;84653.69;;;-8.27;35.11
70437;BME280;57877;39.750;-104.894;2023-02-10T09:50:25;84652.03;;;-8.14;34.70
70437;BME280;57877;39.750;-104.894;2023-02-10T09:52:50;84649.63;;;-8.33;35.00
70437;BME280;57877;39.750;-104.894;2023-02-10T09:55:12;84649.97;;;-8.42;34.87
70437;BME280;57877;39.750;-104.894;2023-02-10T09:57:35;84647.86;;;-8.46;35.29
70437;BME280;57877;39.750;-104.894;2023-02-10T09:59:56;84644.82;;;-7.94;34.61
70437;BME280;57877;39.750;-104.894;2023-02-10T10:02:26;84643.39;;;-8.85;35.96
70437;BME280;57877;39.750;-104.894;2023-02-10T10:04:45;84646.27;;;-8.12;35.32
70437;BME280;57877;39.750;-104.894;2023-02-10T10:07:19;84644.04;;;-8.49;35.18
70437;BME280;57877;39.750;-104.894;2023-02-10T10:09:40;84641.64;;;-9.01;36.07
70437;BME280;57877;39.750;-104.894;2023-02-10T10:12:01;84642.20;;;-8.83;35.99
70437;BME280;57877;39.750;-104.894;2023-02-10T10:14:28;84640.35;;;-8.63;35.47
70437;BME280;57877;39.750;-104.894;2023-02-10T10:17:03;84641.19;;;-8.53;35.53
70437;BME280;57877;39.750;-104.894;2023-02-10T10:19:25;84638.52;;;-9.33;36.01
70437;BME280;57877;39.750;-104.894;2023-02-10T10:21:49;84634.64;;;-9.01;36.57
70437;BME280;57877;39.750;-104.894;2023-02-10T10:24:19;84633.31;;;-8.87;35.95
70437;BME280;57877;39.750;-104.894;2023-02-10T10:26:41;84629.96;;;-9.17;35.89
70437;BME280;57877;39.750;-104.894;2023-02-10T10:29:08;84630.10;;;-8.52;35.32
70437;BME280;57877;39.750;-104.894;2023-02-10T10:31:26;84622.28;;;-8.65;35.53
70437;BME280;57877;39.750;-104.894;2023-02-10T10:33:51;84616.68;;;-8.98;35.75
70437;BME280;57877;39.750;-104.894;2023-02-10T10:36:16;84618.19;;;-8.73;35.32
70437;BME280;57877;39.750;-104.894;2023-02-10T10:38:43;84616.04;;;-8.82;35.66
70437;BME280;57877;39.750;-104.894;2023-02-10T10:41:07;84614.05;;;-8.73;35.74
70437;BME280;57877;39.750;-104.894;2023-02-10T10:43:31;84608.81;;;-8.57;35.33
70437;BME280;57877;39.750;-104.894;2023-02-10T10:45:57;84606.26;;;-8.89;35.63
70437;BME280;57877;39.750;-104.894;2023-02-10T10:48:22;84607.18;;;-8.77;35.83
70437;BME280;57877;39.750;-104.894;2023-02-10T10:50:45;84608.87;;;-8.56;35.53
70437;BME280;57877;39.750;-104.894;2023-02-10T10:53:15;84600.98;;;-8.97;35.62
70437;BME280;57877;39.750;-104.894;2023-02-10T10:55:38;84589.77;;;-9.28;36.24
70437;BME280;57877;39.750;-104.894;2023-02-10T10:58:01;84586.87;;;-9.47;36.45
70437;BME280;57877;39.750;-104.894;2023-02-10T11:00:27;84586.04;;;-8.99;36.07
70437;BME280;57877;39.750;-104.894;2023-02-10T11:02:54;84589.74;;;-9.30;36.22
70437;BME280;57877;39.750;-104.894;2023-02-10T11:05:16;84591.75;;;-8.99;35.99
70437;BME280;57877;39.750;-104.894;2023-02-10T11:07:42;84593.98;;;-8.48;35.38
70437;BME280;57877;39.750;-104.894;2023-02-10T11:12:34;84588.69;;;-8.59;34.97
70437;BME280;57877;39.750;-104.894;2023-02-10T11:14:57;84588.06;;;-8.52;34.73
70437;BME280;57877;39.750;-104.894;2023-02-10T11:17:26;84587.25;;;-8.72;34.63
70437;BME280;57877;39.750;-104.894;2023-02-10T11:19:53;84585.80;;;-8.44;34.44
70437;BME280;57877;39.750;-104.894;2023-02-10T11:22:15;84585.54;;;-8.64;34.87
70437;BME280;57877;39.750;-104.894;2023-02-10T11:24:47;84582.31;;;-8.83;34.88
70437;BME280;57877;39.750;-104.894;2023-02-10T11:27:05;84584.78;;;-8.88;35.18
70437;BME280;57877;39.750;-104.894;2023-02-10T11:29:30;84583.68;;;-9.23;35.04
70437;BME280;57877;39.750;-104.894;2023-02-10T11:31:54;84582.26;;;-8.73;34.64
70437;BME280;57877;39.750;-104.894;2023-02-10T11:34:22;84582.78;;;-8.41;34.38
70437;BME280;57877;39.750;-104.894;2023-02-10T11:36:44;84585.05;;;-9.24;35.24
70437;BME280;57877;39.750;-104.894;2023-02-10T11:39:20;84581.27;;;-8.74;34.54
70437;BME280;57877;39.750;-104.894;2023-02-10T11:41:35;84580.65;;;-8.38;34.25
70437;BME280;57877;39.750;-104.894;2023-02-10T11:44:00;84577.76;;;-8.59;34.24
70437;BME280;57877;39.750;-104.894;2023-02-10T11:46:26;84577.83;;;-8.86;34.68
70437;BME280;57877;39.750;-104.894;2023-02-10T11:48:55;84578.17;;;-8.54;34.11
70437;BME280;57877;39.750;-104.894;2023-02-10T11:51:17;84577.68;;;-8.95;34.25
70437;BME280;57877;39.750;-104.894;2023-02-10T11:53:42;84580.35;;;-8.93;34.69
70437;BME280;57877;39.750;-104.894;2023-02-10T11:56:11;84576.10;;;-8.63;34.18
70437;BME280;57877;39.750;-104.894;2023-02-10T11:58:45;84577.06;;;-9.01;34.50
70437;BME280;57877;39.750;-104.894;2023-02-10T12:01:05;84576.82;;;-9.15;34.83
70437;BME280;57877;39.750;-104.894;2023-02-10T12:03:34;84574.21;;;-8.73;34.64
70437;BME280;57877;39.750;-104.894;2023-02-10T12:05:50;84572.83;;;-9.02;34.50
70437;BME280;57877;39.750;-104.894;2023-02-10T12:08:18;84570.17;;;-9.09;35.06
70437;BME280;57877;39.750;-104.894;2023-02-10T12:10:43;84570.91;;;-8.81;34.85
70437;BME280;57877;39.750;-104.894;2023-02-10T12:13:09;84570.55;;;-9.08;34.88
70437;BME280;57877;39.750;-104.894;2023-02-10T12:15:37;84566.17;;;-8.88;34.65
70437;BME280;57877;39.750;-104.894;2023-02-10T12:18:01;84567.54;;;-8.74;34.45
70437;BME280;57877;39.750;-104.894;2023-02-10T12:20:27;84571.98;;;-8.49;34.04
70437;BME280;57877;39.750;-104.894;2023-02-10T12:25:15;84564.72;;;-8.77;34.20
70437;BME280;57877;39.750;-104.894;2023-02-10T12:27:45;84565.35;;;-9.73;35.32
70437;BME280;57877;39.750;-104.894;2023-02-10T12:30:04;84570.95;;;-9.79;34.79